sensor_id;sensor_type;location;lat;lon;timestamp;P1;durP1;ratioP1;P2;durP2;ratioP2
60243;SDS011;46106;51.468;5.814;2024-02-15T00:00:32;53.67;;;24.47;;
60243;SDS011;46106;51.468;5.814;2024-02-15T00:02:57;44.13;;;21.88;;
60243;SDS011;46106;51.468;5.814;2024-02-15T00:05:23;44.42;;;22.67;;
60243;SDS011;46106;51.468;5.814;2024-02-15T00:07:48;52.38;;;22.63;;
60243;SDS011;46106;51.468;5.814;2024-02-15T00:10:14;54.67;;;21.77;;
60243;SDS011;46106;51.468;5.814;2024-02-15T00:12:39;42.95;;;21.63;;
60243;SDS011;46106;51.468;5.814;2024-02-15T00:15:05;56.83;;;21.85;;
60243;SDS011;46106;51.468;5.814;2024-02-15T00:17:30;49.58;;;21.90;;
60243;SDS011;46106;51.468;5.814;2024-02-15T00:19:55;44.87;;;19.73;;
60243;SDS011;46106;51.468;5.814;2024-02-15T00:22:21;41.70;;;19.50;;
60243;SDS011;46106;51.468;5.814;2024-02-15T00:24:46;42.63;;;20.15;;
60243;SDS011;46106;51.468;5.814;2024-02-15T00:27:11;41.13;;;20.30;;
60243;SDS011;46106;51.468;5.814;2024-02-15T00:29:37;36.10;;;18.73;;
60243;SDS011;46106;51.468;5.814;2024-02-15T00:32:02;41.07;;;19.77;;
60243;SDS011;46106;51.468;5.814;2024-02-15T00:34:28;41.22;;;18.80;;
60243;SDS011;46106;51.468;5.814;2024-02-15T00:36:54;44.33;;;17.85;;
60243;SDS011;46106;51.468;5.814;2024-02-15T00:39:19;43.63;;;19.27;;
60243;SDS011;46106;51.468;5.814;2024-02-15T00:41:45;45.63;;;19.45;;
60243;SDS011;46106;51.468;5.814;2024-02-15T00:44:11;42.35;;;18.27;;
60243;SDS011;46106;51.468;5.814;2024-02-15T00:46:37;40.90;;;19.03;;
60243;SDS011;46106;51.468;5.814;2024-02-15T00:49:02;37.40;;;18.25;;
60243;SDS011;46106;51.468;5.814;2024-02-15T00:51:29;39.53;;;18.35;;
60243;SDS011;46106;51.468;5.814;2024-02-15T00:53:55;35.28;;;17.60;;
60243;SDS011;46106;51.468;5.814;2024-02-15T00:56:20;37.80;;;17.52;;
60243;SDS011;46106;51.468;5.814;2024-02-15T00:58:47;36.47;;;17.58;;
60243;SDS011;46106;51.468;5.814;2024-02-15T01:01:12;42.47;;;17.40;;
60243;SDS011;46106;51.468;5.814;2024-02-15T01:03:38;39.55;;;17.52;;
60243;SDS011;46106;51.468;5.814;2024-02-15T01:06:03;36.45;;;17.67;;
60243;SDS011;46106;51.468;5.814;2024-02-15T01:08:30;30.50;;;15.15;;
60243;SDS011;46106;51.468;5.814;2024-02-15T01:10:55;43.95;;;15.95;;
60243;SDS011;46106;51.468;5.814;2024-02-15T01:13:21;36.47;;;15.82;;
60243;SDS011;46106;51.468;5.814;2024-02-15T01:15:46;72.28;;;19.13;;
60243;SDS011;46106;51.468;5.814;2024-02-15T01:18:12;45.65;;;15.52;;
60243;SDS011;46106;51.468;5.814;2024-02-15T01:20:37;39.35;;;14.77;;
60243;SDS011;46106;51.468;5.814;2024-02-15T01:23:02;30.95;;;14.60;;
60243;SDS011;46106;51.468;5.814;2024-02-15T01:25:30;42.05;;;14.30;;
60243;SDS011;46106;51.468;5.814;2024-02-15T01:27:55;33.72;;;13.57;;
60243;SDS011;46106;51.468;5.814;2024-02-15T01:30:20;34.03;;;12.50;;
60243;SDS011;46106;51.468;5.814;2024-02-15T01:32:45;37.30;;;12.27;;
60243;SDS011;46106;51.468;5.814;2024-02-15T01:35:11;33.07;;;13.67;;
60243;SDS011;46106;51.468;5.814;2024-02-15T01:37:36;33.08;;;12.48;;
60243;SDS011;46106;51.468;5.814;2024-02-15T01:40:02;37.65;;;11.65;;
60243;SDS011;46106;51.468;5.814;2024-02-15T01:42:27;33.70;;;11.48;;
60243;SDS011;46106;51.468;5.814;2024-02-15T01:44:52;25.83;;;12.07;;
60243;SDS011;46106;51.468;5.814;2024-02-15T01:47:18;28.10;;;9.97;;
60243;SDS011;46106;51.468;5.814;2024-02-15T01:49:47;37.05;;;10.98;;
60243;SDS011;46106;51.468;5.814;2024-02-15T01:52:13;27.77;;;11.52;;
60243;SDS011;46106;51.468;5.814;2024-02-15T01:54:40;27.25;;;9.85;;
60243;SDS011;46106;51.468;5.814;2024-02-15T01:57:05;27.47;;;10.43;;
60243;SDS011;46106;51.468;5.814;2024-02-15T01:59:31;29.85;;;10.10;;
60243;SDS011;46106;51.468;5.814;2024-02-15T02:01:56;31.10;;;10.02;;
60243;SDS011;46106;51.468;5.814;2024-02-15T02:04:21;32.72;;;9.52;;
60243;SDS011;46106;51.468;5.814;2024-02-15T02:06:47;33.22;;;10.50;;
60243;SDS011;46106;51.468;5.814;2024-02-15T02:09:13;25.80;;;9.20;;
60243;SDS011;46106;51.468;5.814;2024-02-15T02:11:39;27.63;;;8.98;;
60243;SDS011;46106;51.468;5.814;2024-02-15T02:14:04;23.13;;;9.67;;
60243;SDS011;46106;51.468;5.814;2024-02-15T02:16:30;34.43;;;12.27;;
60243;SDS011;46106;51.468;5.814;2024-02-15T02:19:00;37.45;;;13.88;;
60243;SDS011;46106;51.468;5.814;2024-02-15T02:21:27;47.25;;;16.20;;
60243;SDS011;46106;51.468;5.814;2024-02-15T02:23:53;44.38;;;18.52;;
60243;SDS011;46106;51.468;5.814;2024-02-15T02:26:21;55.33;;;23.08;;
60243;SDS011;46106;51.468;5.814;2024-02-15T02:28:47;62.42;;;25.15;;
60243;SDS011;46106;51.468;5.814;2024-02-15T02:31:12;56.70;;;26.80;;
60243;SDS011;46106;51.468;5.814;2024-02-15T02:33:39;59.67;;;25.05;;
60243;SDS011;46106;51.468;5.814;2024-02-15T02:36:04;46.20;;;22.52;;
60243;SDS011;46106;51.468;5.814;2024-02-15T02:38:34;51.42;;;19.20;;
60243;SDS011;46106;51.468;5.814;2024-02-15T02:41:00;37.13;;;15.52;;
60243;SDS011;46106;51.468;5.814;2024-02-15T02:43:25;29.70;;;12.90;;
60243;SDS011;46106;51.468;5.814;2024-02-15T02:45:50;39.07;;;12.13;;
60243;SDS011;46106;51.468;5.814;2024-02-15T02:48:15;19.75;;;9.15;;
60243;SDS011;46106;51.468;5.814;2024-02-15T02:50:43;21.88;;;9.27;;
60243;SDS011;46106;51.468;5.814;2024-02-15T02:53:08;22.93;;;7.60;;
60243;SDS011;46106;51.468;5.814;2024-02-15T02:55:35;18.98;;;6.95;;
60243;SDS011;46106;51.468;5.814;2024-02-15T02:58:01;14.73;;;5.40;;
60243;SDS011;46106;51.468;5.814;2024-02-15T03:00:26;27.83;;;6.77;;
60243;SDS011;46106;51.468;5.814;2024-02-15T03:02:52;24.85;;;6.80;;
60243;SDS011;46106;51.468;5.814;2024-02-15T03:05:21;21.63;;;7.35;;
60243;SDS011;46106;51.468;5.814;2024-02-15T03:07:47;25.40;;;6.22;;
60243;SDS011;46106;51.468;5.814;2024-02-15T03:10:12;27.13;;;6.30;;
60243;SDS011;46106;51.468;5.814;2024-02-15T03:12:38;18.92;;;5.95;;
60243;SDS011;46106;51.468;5.814;2024-02-15T03:15:04;17.60;;;6.65;;
60243;SDS011;46106;51.468;5.814;2024-02-15T03:17:32;15.13;;;6.10;;
60243;SDS011;46106;51.468;5.814;2024-02-15T03:19:58;22.80;;;6.43;;
60243;SDS011;46106;51.468;5.814;2024-02-15T03:22:24;20.98;;;6.07;;
60243;SDS011;46106;51.468;5.814;2024-02-15T03:24:50;16.15;;;5.75;;
60243;SDS011;46106;51.468;5.814;2024-02-15T03:27:16;24.53;;;6.77;;
60243;SDS011;46106;51.468;5.814;2024-02-15T03:29:41;18.48;;;5.88;;
60243;SDS011;46106;51.468;5.814;2024-02-15T03:32:06;14.15;;;5.93;;
60243;SDS011;46106;51.468;5.814;2024-02-15T03:34:32;8.50;;;5.60;;
60243;SDS011;46106;51.468;5.814;2024-02-15T03:36:57;13.03;;;5.43;;
60243;SDS011;46106;51.468;5.814;2024-02-15T03:39:23;22.30;;;5.35;;
60243;SDS011;46106;51.468;5.814;2024-02-15T03:41:49;21.38;;;6.20;;
60243;SDS011;46106;51.468;5.814;2024-02-15T03:44:14;22.00;;;5.72;;
60243;SDS011;46106;51.468;5.814;2024-02-15T03:46:39;21.00;;;6.30;;
60243;SDS011;46106;51.468;5.814;2024-02-15T03:49:05;19.60;;;5.35;;
60243;SDS011;46106;51.468;5.814;2024-02-15T03:51:31;18.13;;;5.63;;
60243;SDS011;46106;51.468;5.814;2024-02-15T03:53:57;22.17;;;5.45;;
60243;SDS011;46106;51.468;5.814;2024-02-15T03:56:23;15.63;;;5.30;;
60243;SDS011;46106;51.468;5.814;2024-02-15T03:58:48;24.35;;;5.80;;
60243;SDS011;46106;51.468;5.814;2024-02-15T04:01:15;13.13;;;5.35;;
60243;SDS011;46106;51.468;5.814;2024-02-15T04:03:41;20.52;;;4.70;;
60243;SDS011;46106;51.468;5.814;2024-02-15T04:06:06;13.05;;;4.70;;
60243;SDS011;46106;51.468;5.814;2024-02-15T04:08:31;17.00;;;4.97;;
60243;SDS011;46106;51.468;5.814;2024-02-15T04:10:56;22.87;;;5.97;;
60243;SDS011;46106;51.468;5.814;2024-02-15T04:13:22;25.42;;;5.13;;
60243;SDS011;46106;51.468;5.814;2024-02-15T04:15:47;13.63;;;4.95;;
60243;SDS011;46106;51.468;5.814;2024-02-15T04:18:14;25.42;;;4.18;;
60243;SDS011;46106;51.468;5.814;2024-02-15T04:20:40;13.73;;;4.00;;
60243;SDS011;46106;51.468;5.814;2024-02-15T04:23:10;15.43;;;3.95;;
60243;SDS011;46106;51.468;5.814;2024-02-15T04:25:35;11.40;;;3.28;;
60243;SDS011;46106;51.468;5.814;2024-02-15T04:28:01;11.00;;;3.30;;
60243;SDS011;46106;51.468;5.814;2024-02-15T04:30:28;14.25;;;3.63;;
60243;SDS011;46106;51.468;5.814;2024-02-15T04:32:54;14.23;;;4.00;;
60243;SDS011;46106;51.468;5.814;2024-02-15T04:35:19;10.83;;;3.67;;
60243;SDS011;46106;51.468;5.814;2024-02-15T04:37:44;13.15;;;3.20;;
60243;SDS011;46106;51.468;5.814;2024-02-15T04:40:12;13.73;;;3.67;;
60243;SDS011;46106;51.468;5.814;2024-02-15T04:42:38;16.95;;;3.42;;
60243;SDS011;46106;51.468;5.814;2024-02-15T04:45:05;9.10;;;3.10;;
60243;SDS011;46106;51.468;5.814;2024-02-15T04:47:35;14.63;;;3.28;;
60243;SDS011;46106;51.468;5.814;2024-02-15T04:50:00;13.07;;;3.00;;
60243;SDS011;46106;51.468;5.814;2024-02-15T04:52:25;15.88;;;3.75;;
60243;SDS011;46106;51.468;5.814;2024-02-15T04:54:51;12.27;;;2.85;;
60243;SDS011;46106;51.468;5.814;2024-02-15T04:57:17;9.45;;;2.75;;
60243;SDS011;46106;51.468;5.814;2024-02-15T04:59:43;12.23;;;2.87;;
60243;SDS011;46106;51.468;5.814;2024-02-15T05:02:12;13.23;;;3.40;;
60243;SDS011;46106;51.468;5.814;2024-02-15T05:04:37;11.80;;;3.53;;
60243;SDS011;46106;51.468;5.814;2024-02-15T05:07:02;14.02;;;3.30;;
60243;SDS011;46106;51.468;5.814;2024-02-15T05:09:28;15.05;;;3.40;;
60243;SDS011;46106;51.468;5.814;2024-02-15T05:11:56;16.40;;;3.25;;
60243;SDS011;46106;51.468;5.814;2024-02-15T05:14:21;15.83;;;3.70;;
60243;SDS011;46106;51.468;5.814;2024-02-15T05:16:48;11.77;;;3.53;;
60243;SDS011;46106;51.468;5.814;2024-02-15T05:19:16;14.98;;;3.55;;
60243;SDS011;46106;51.468;5.814;2024-02-15T05:21:42;15.80;;;3.25;;
60243;SDS011;46106;51.468;5.814;2024-02-15T05:24:13;9.82;;;3.30;;
60243;SDS011;46106;51.468;5.814;2024-02-15T05:26:39;8.57;;;3.10;;
60243;SDS011;46106;51.468;5.814;2024-02-15T05:29:04;13.48;;;3.33;;
60243;SDS011;46106;51.468;5.814;2024-02-15T05:31:30;14.98;;;3.40;;
60243;SDS011;46106;51.468;5.814;2024-02-15T05:33:55;18.00;;;3.42;;
60243;SDS011;46106;51.468;5.814;2024-02-15T05:36:21;16.88;;;3.38;;
60243;SDS011;46106;51.468;5.814;2024-02-15T05:38:48;15.18;;;2.92;;
60243;SDS011;46106;51.468;5.814;2024-02-15T05:41:13;18.73;;;3.30;;
60243;SDS011;46106;51.468;5.814;2024-02-15T05:43:39;12.13;;;3.78;;
60243;SDS011;46106;51.468;5.814;2024-02-15T05:46:05;12.70;;;3.33;;
60243;SDS011;46106;51.468;5.814;2024-02-15T05:48:31;12.77;;;3.78;;
60243;SDS011;46106;51.468;5.814;2024-02-15T05:51:00;10.80;;;3.20;;
60243;SDS011;46106;51.468;5.814;2024-02-15T05:53:25;15.60;;;3.25;;
60243;SDS011;46106;51.468;5.814;2024-02-15T05:55:51;10.52;;;2.83;;
60243;SDS011;46106;51.468;5.814;2024-02-15T05:58:16;13.32;;;3.22;;
60243;SDS011;46106;51.468;5.814;2024-02-15T06:00:42;11.15;;;3.30;;
60243;SDS011;46106;51.468;5.814;2024-02-15T06:03:09;10.45;;;3.00;;
60243;SDS011;46106;51.468;5.814;2024-02-15T06:05:34;10.87;;;3.27;;
60243;SDS011;46106;51.468;5.814;2024-02-15T06:08:00;9.32;;;3.58;;
60243;SDS011;46106;51.468;5.814;2024-02-15T06:10:25;14.13;;;3.50;;
60243;SDS011;46106;51.468;5.814;2024-02-15T06:12:51;12.70;;;3.30;;
60243;SDS011;46106;51.468;5.814;2024-02-15T06:15:16;15.10;;;3.60;;
60243;SDS011;46106;51.468;5.814;2024-02-15T06:17:41;5.72;;;3.13;;
60243;SDS011;46106;51.468;5.814;2024-02-15T06:20:10;14.65;;;3.53;;
60243;SDS011;46106;51.468;5.814;2024-02-15T06:22:37;21.63;;;3.78;;
60243;SDS011;46106;51.468;5.814;2024-02-15T06:25:03;10.15;;;3.30;;
60243;SDS011;46106;51.468;5.814;2024-02-15T06:27:28;10.18;;;3.00;;
60243;SDS011;46106;51.468;5.814;2024-02-15T06:29:53;13.27;;;3.20;;
60243;SDS011;46106;51.468;5.814;2024-02-15T06:32:37;16.70;;;4.10;;
60243;SDS011;46106;51.468;5.814;2024-02-15T06:35:21;14.27;;;3.58;;
60243;SDS011;46106;51.468;5.814;2024-02-15T06:38:06;21.55;;;4.07;;
60243;SDS011;46106;51.468;5.814;2024-02-15T06:40:49;12.45;;;3.88;;
60243;SDS011;46106;51.468;5.814;2024-02-15T06:43:15;13.67;;;3.60;;
60243;SDS011;46106;51.468;5.814;2024-02-15T06:45:41;10.80;;;3.83;;
60243;SDS011;46106;51.468;5.814;2024-02-15T06:48:11;13.23;;;3.22;;
60243;SDS011;46106;51.468;5.814;2024-02-15T06:50:37;20.05;;;3.65;;
60243;SDS011;46106;51.468;5.814;2024-02-15T06:53:02;10.38;;;3.28;;
60243;SDS011;46106;51.468;5.814;2024-02-15T06:55:28;16.02;;;3.85;;
60243;SDS011;46106;51.468;5.814;2024-02-15T06:57:53;10.93;;;3.10;;
60243;SDS011;46106;51.468;5.814;2024-02-15T07:00:20;12.55;;;3.78;;
60243;SDS011;46106;51.468;5.814;2024-02-15T07:02:45;16.25;;;3.80;;
60243;SDS011;46106;51.468;5.814;2024-02-15T07:05:10;10.35;;;3.72;;
60243;SDS011;46106;51.468;5.814;2024-02-15T07:07:36;9.65;;;3.70;;
60243;SDS011;46106;51.468;5.814;2024-02-15T07:10:01;13.77;;;3.67;;
60243;SDS011;46106;51.468;5.814;2024-02-15T07:12:28;10.13;;;3.55;;
60243;SDS011;46106;51.468;5.814;2024-02-15T07:14:53;15.23;;;3.63;;
60243;SDS011;46106;51.468;5.814;2024-02-15T07:17:19;9.85;;;4.05;;
60243;SDS011;46106;51.468;5.814;2024-02-15T07:19:45;11.82;;;3.30;;
60243;SDS011;46106;51.468;5.814;2024-02-15T07:22:17;13.30;;;3.60;;
60243;SDS011;46106;51.468;5.814;2024-02-15T07:24:42;9.02;;;3.80;;
60243;SDS011;46106;51.468;5.814;2024-02-15T07:27:08;13.50;;;3.83;;
60243;SDS011;46106;51.468;5.814;2024-02-15T07:29:34;5.18;;;2.97;;
60243;SDS011;46106;51.468;5.814;2024-02-15T07:32:03;14.10;;;3.50;;
60243;SDS011;46106;51.468;5.814;2024-02-15T07:34:31;11.45;;;5.00;;
60243;SDS011;46106;51.468;5.814;2024-02-15T07:36:57;17.13;;;3.42;;
60243;SDS011;46106;51.468;5.814;2024-02-15T07:39:23;18.38;;;4.25;;
60243;SDS011;46106;51.468;5.814;2024-02-15T07:41:53;17.75;;;3.90;;
60243;SDS011;46106;51.468;5.814;2024-02-15T07:44:18;16.88;;;3.90;;
60243;SDS011;46106;51.468;5.814;2024-02-15T07:46:43;14.20;;;4.68;;
60243;SDS011;46106;51.468;5.814;2024-02-15T07:49:09;11.73;;;4.50;;
60243;SDS011;46106;51.468;5.814;2024-02-15T07:51:34;21.30;;;4.80;;
60243;SDS011;46106;51.468;5.814;2024-02-15T07:54:01;19.45;;;4.97;;
60243;SDS011;46106;51.468;5.814;2024-02-15T07:56:26;13.15;;;4.75;;
60243;SDS011;46106;51.468;5.814;2024-02-15T07:58:52;16.48;;;4.70;;
60243;SDS011;46106;51.468;5.814;2024-02-15T08:01:17;13.57;;;4.80;;
60243;SDS011;46106;51.468;5.814;2024-02-15T08:03:44;16.15;;;4.95;;
60243;SDS011;46106;51.468;5.814;2024-02-15T08:06:14;20.42;;;5.40;;
60243;SDS011;46106;51.468;5.814;2024-02-15T08:08:40;17.25;;;5.30;;
60243;SDS011;46106;51.468;5.814;2024-02-15T08:11:06;16.05;;;5.15;;
60243;SDS011;46106;51.468;5.814;2024-02-15T08:13:35;14.38;;;5.35;;
60243;SDS011;46106;51.468;5.814;2024-02-15T08:16:03;13.38;;;4.85;;
60243;SDS011;46106;51.468;5.814;2024-02-15T08:18:30;14.45;;;4.30;;
60243;SDS011;46106;51.468;5.814;2024-02-15T08:20:55;15.35;;;4.47;;
60243;SDS011;46106;51.468;5.814;2024-02-15T08:23:21;12.07;;;4.35;;
60243;SDS011;46106;51.468;5.814;2024-02-15T08:25:46;22.53;;;5.47;;
60243;SDS011;46106;51.468;5.814;2024-02-15T08:28:12;11.85;;;3.60;;
60243;SDS011;46106;51.468;5.814;2024-02-15T08:30:38;8.80;;;3.45;;
60243;SDS011;46106;51.468;5.814;2024-02-15T08:33:03;13.82;;;3.75;;
60243;SDS011;46106;51.468;5.814;2024-02-15T08:35:29;17.40;;;4.15;;
60243;SDS011;46106;51.468;5.814;2024-02-15T08:37:54;13.83;;;3.73;;
60243;SDS011;46106;51.468;5.814;2024-02-15T08:40:21;10.98;;;3.92;;
60243;SDS011;46106;51.468;5.814;2024-02-15T08:42:50;10.93;;;2.95;;
60243;SDS011;46106;51.468;5.814;2024-02-15T08:45:15;7.78;;;3.05;;
60243;SDS011;46106;51.468;5.814;2024-02-15T08:47:41;10.05;;;3.88;;
60243;SDS011;46106;51.468;5.814;2024-02-15T08:50:07;15.27;;;4.13;;
60243;SDS011;46106;51.468;5.814;2024-02-15T08:52:36;16.67;;;4.15;;
60243;SDS011;46106;51.468;5.814;2024-02-15T08:55:04;32.70;;;5.90;;
60243;SDS011;46106;51.468;5.814;2024-02-15T08:57:31;12.75;;;3.90;;
60243;SDS011;46106;51.468;5.814;2024-02-15T08:59:57;16.73;;;3.72;;
60243;SDS011;46106;51.468;5.814;2024-02-15T09:02:22;15.83;;;4.00;;
60243;SDS011;46106;51.468;5.814;2024-02-15T09:04:47;12.63;;;3.58;;
60243;SDS011;46106;51.468;5.814;2024-02-15T09:07:13;13.65;;;4.00;;
60243;SDS011;46106;51.468;5.814;2024-02-15T09:09:38;14.00;;;3.50;;
60243;SDS011;46106;51.468;5.814;2024-02-15T09:12:03;12.80;;;3.63;;
60243;SDS011;46106;51.468;5.814;2024-02-15T09:14:31;16.77;;;3.40;;
60243;SDS011;46106;51.468;5.814;2024-02-15T09:16:56;8.55;;;3.42;;
60243;SDS011;46106;51.468;5.814;2024-02-15T09:19:22;13.93;;;3.40;;
60243;SDS011;46106;51.468;5.814;2024-02-15T09:21:49;10.93;;;2.97;;
60243;SDS011;46106;51.468;5.814;2024-02-15T09:24:14;14.43;;;3.92;;
60243;SDS011;46106;51.468;5.814;2024-02-15T09:26:41;12.85;;;3.10;;
60243;SDS011;46106;51.468;5.814;2024-02-15T09:29:06;12.70;;;2.78;;
60243;SDS011;46106;51.468;5.814;2024-02-15T09:31:31;9.23;;;2.77;;
60243;SDS011;46106;51.468;5.814;2024-02-15T09:33:58;10.45;;;3.75;;
60243;SDS011;46106;51.468;5.814;2024-02-15T09:36:24;10.53;;;3.30;;
60243;SDS011;46106;51.468;5.814;2024-02-15T09:38:49;6.57;;;2.70;;
60243;SDS011;46106;51.468;5.814;2024-02-15T09:41:14;11.00;;;2.97;;
60243;SDS011;46106;51.468;5.814;2024-02-15T09:43:39;14.57;;;3.20;;
60243;SDS011;46106;51.468;5.814;2024-02-15T09:46:05;9.30;;;2.58;;
60243;SDS011;46106;51.468;5.814;2024-02-15T09:48:31;7.20;;;2.42;;
60243;SDS011;46106;51.468;5.814;2024-02-15T09:50:57;6.53;;;2.95;;
60243;SDS011;46106;51.468;5.814;2024-02-15T09:53:22;10.05;;;2.72;;
60243;SDS011;46106;51.468;5.814;2024-02-15T09:55:52;10.93;;;3.03;;
60243;SDS011;46106;51.468;5.814;2024-02-15T09:58:19;9.10;;;3.40;;
60243;SDS011;46106;51.468;5.814;2024-02-15T10:00:44;9.30;;;3.47;;
60243;SDS011;46106;51.468;5.814;2024-02-15T10:03:11;9.65;;;3.30;;
60243;SDS011;46106;51.468;5.814;2024-02-15T10:05:37;6.60;;;2.83;;
60243;SDS011;46106;51.468;5.814;2024-02-15T10:13:16;11.40;;;3.10;;
60243;SDS011;46106;51.468;5.814;2024-02-15T10:15:47;7.17;;;2.70;;
60243;SDS011;46106;51.468;5.814;2024-02-15T10:20:57;10.75;;;3.53;;
60243;SDS011;46106;51.468;5.814;2024-02-15T10:23:22;8.10;;;2.50;;
60243;SDS011;46106;51.468;5.814;2024-02-15T10:25:47;6.45;;;2.28;;
60243;SDS011;46106;51.468;5.814;2024-02-15T10:28:19;6.65;;;2.50;;
60243;SDS011;46106;51.468;5.814;2024-02-15T10:30:45;10.65;;;2.60;;
60243;SDS011;46106;51.468;5.814;2024-02-15T10:33:19;6.78;;;2.08;;
60243;SDS011;46106;51.468;5.814;2024-02-15T10:35:48;7.28;;;1.80;;
60243;SDS011;46106;51.468;5.814;2024-02-15T10:38:14;5.70;;;2.17;;
60243;SDS011;46106;51.468;5.814;2024-02-15T10:40:40;7.03;;;2.35;;
60243;SDS011;46106;51.468;5.814;2024-02-15T10:43:07;5.35;;;2.00;;
60243;SDS011;46106;51.468;5.814;2024-02-15T10:45:35;7.75;;;2.38;;
60243;SDS011;46106;51.468;5.814;2024-02-15T10:48:11;4.47;;;2.20;;
60243;SDS011;46106;51.468;5.814;2024-02-15T10:58:23;7.82;;;2.53;;
60243;SDS011;46106;51.468;5.814;2024-02-15T11:00:50;5.18;;;2.10;;
60243;SDS011;46106;51.468;5.814;2024-02-15T11:03:19;7.25;;;1.98;;
60243;SDS011;46106;51.468;5.814;2024-02-15T11:05:49;4.63;;;2.05;;
60243;SDS011;46106;51.468;5.814;2024-02-15T11:08:14;8.75;;;2.53;;
60243;SDS011;46106;51.468;5.814;2024-02-15T11:10:42;9.38;;;2.17;;
60243;SDS011;46106;51.468;5.814;2024-02-15T11:13:08;7.40;;;2.20;;
60243;SDS011;46106;51.468;5.814;2024-02-15T11:15:44;8.65;;;1.98;;
60243;SDS011;46106;51.468;5.814;2024-02-15T11:19:04;7.78;;;2.22;;
60243;SDS011;46106;51.468;5.814;2024-02-15T11:21:04;6.40;;;2.42;;
60243;SDS011;46106;51.468;5.814;2024-02-15T11:23:30;7.32;;;2.35;;
60243;SDS011;46106;51.468;5.814;2024-02-15T11:25:55;5.35;;;1.88;;
60243;SDS011;46106;51.468;5.814;2024-02-15T11:30:52;3.20;;;1.80;;
60243;SDS011;46106;51.468;5.814;2024-02-15T11:36:07;5.07;;;1.58;;
60243;SDS011;46106;51.468;5.814;2024-02-15T11:38:34;7.90;;;1.55;;
60243;SDS011;46106;51.468;5.814;2024-02-15T11:41:00;7.88;;;2.08;;
60243;SDS011;46106;51.468;5.814;2024-02-15T11:46:29;5.22;;;1.70;;
60243;SDS011;46106;51.468;5.814;2024-02-15T11:48:59;7.60;;;2.55;;
60243;SDS011;46106;51.468;5.814;2024-02-15T11:53:59;4.25;;;1.83;;
60243;SDS011;46106;51.468;5.814;2024-02-15T11:56:25;3.00;;;1.50;;
60243;SDS011;46106;51.468;5.814;2024-02-15T11:59:01;3.27;;;1.30;;
60243;SDS011;46106;51.468;5.814;2024-02-15T12:01:27;5.85;;;1.65;;
60243;SDS011;46106;51.468;5.814;2024-02-15T12:04:12;8.07;;;1.75;;
60243;SDS011;46106;51.468;5.814;2024-02-15T12:06:57;7.28;;;2.03;;
60243;SDS011;46106;51.468;5.814;2024-02-15T12:09:41;4.88;;;1.35;;
60243;SDS011;46106;51.468;5.814;2024-02-15T12:12:25;6.43;;;1.50;;
60243;SDS011;46106;51.468;5.814;2024-02-15T12:15:09;5.95;;;1.70;;
60243;SDS011;46106;51.468;5.814;2024-02-15T12:17:53;3.22;;;1.88;;
60243;SDS011;46106;51.468;5.814;2024-02-15T12:20:57;5.82;;;1.63;;
60243;SDS011;46106;51.468;5.814;2024-02-15T12:23:22;10.20;;;2.20;;
60243;SDS011;46106;51.468;5.814;2024-02-15T12:25:51;7.20;;;1.57;;
60243;SDS011;46106;51.468;5.814;2024-02-15T12:28:17;4.43;;;2.00;;
60243;SDS011;46106;51.468;5.814;2024-02-15T12:30:42;8.27;;;1.52;;
60243;SDS011;46106;51.468;5.814;2024-02-15T12:33:10;6.07;;;1.57;;
60243;SDS011;46106;51.468;5.814;2024-02-15T12:35:37;3.03;;;1.00;;
60243;SDS011;46106;51.468;5.814;2024-02-15T12:38:03;3.45;;;1.70;;
60243;SDS011;46106;51.468;5.814;2024-02-15T12:40:31;5.55;;;1.25;;
60243;SDS011;46106;51.468;5.814;2024-02-15T12:42:57;5.97;;;1.20;;
60243;SDS011;46106;51.468;5.814;2024-02-15T12:45:22;3.30;;;1.00;;
60243;SDS011;46106;51.468;5.814;2024-02-15T12:47:50;6.75;;;1.45;;
60243;SDS011;46106;51.468;5.814;2024-02-15T12:50:16;9.43;;;1.55;;
60243;SDS011;46106;51.468;5.814;2024-02-15T12:52:42;6.03;;;1.38;;
60243;SDS011;46106;51.468;5.814;2024-02-15T12:55:10;4.45;;;1.40;;
60243;SDS011;46106;51.468;5.814;2024-02-15T12:57:36;5.18;;;1.80;;
60243;SDS011;46106;51.468;5.814;2024-02-15T13:00:05;2.85;;;1.00;;
60243;SDS011;46106;51.468;5.814;2024-02-15T13:02:36;3.47;;;1.33;;
60243;SDS011;46106;51.468;5.814;2024-02-15T13:05:02;3.50;;;1.10;;
60243;SDS011;46106;51.468;5.814;2024-02-15T13:07:28;3.35;;;1.00;;
60243;SDS011;46106;51.468;5.814;2024-02-15T13:09:53;9.40;;;1.20;;
60243;SDS011;46106;51.468;5.814;2024-02-15T13:12:20;3.22;;;0.88;;
60243;SDS011;46106;51.468;5.814;2024-02-15T13:14:45;4.95;;;1.10;;
60243;SDS011;46106;51.468;5.814;2024-02-15T13:17:11;4.15;;;1.13;;
60243;SDS011;46106;51.468;5.814;2024-02-15T13:19:36;5.00;;;1.10;;
60243;SDS011;46106;51.468;5.814;2024-02-15T13:22:02;3.78;;;1.23;;
60243;SDS011;46106;51.468;5.814;2024-02-15T13:24:28;7.97;;;1.00;;
60243;SDS011;46106;51.468;5.814;2024-02-15T13:26:53;6.35;;;1.00;;
60243;SDS011;46106;51.468;5.814;2024-02-15T13:29:18;4.65;;;0.90;;
60243;SDS011;46106;51.468;5.814;2024-02-15T13:31:45;5.43;;;1.10;;
60243;SDS011;46106;51.468;5.814;2024-02-15T13:34:11;4.88;;;0.70;;
60243;SDS011;46106;51.468;5.814;2024-02-15T13:36:37;5.75;;;1.65;;
60243;SDS011;46106;51.468;5.814;2024-02-15T13:39:03;4.88;;;1.75;;
60243;SDS011;46106;51.468;5.814;2024-02-15T13:41:29;8.30;;;1.40;;
60243;SDS011;46106;51.468;5.814;2024-02-15T13:43:55;2.83;;;1.10;;
60243;SDS011;46106;51.468;5.814;2024-02-15T13:46:20;8.70;;;1.17;;
60243;SDS011;46106;51.468;5.814;2024-02-15T13:48:45;3.50;;;0.90;;
60243;SDS011;46106;51.468;5.814;2024-02-15T13:51:10;3.30;;;1.10;;
60243;SDS011;46106;51.468;5.814;2024-02-15T13:53:36;4.70;;;1.07;;
60243;SDS011;46106;51.468;5.814;2024-02-15T13:56:01;3.85;;;1.35;;
60243;SDS011;46106;51.468;5.814;2024-02-15T13:58:26;4.10;;;1.40;;
60243;SDS011;46106;51.468;5.814;2024-02-15T14:00:52;6.60;;;0.80;;
60243;SDS011;46106;51.468;5.814;2024-02-15T14:03:17;2.88;;;1.00;;
60243;SDS011;46106;51.468;5.814;2024-02-15T14:05:43;4.43;;;0.88;;
60243;SDS011;46106;51.468;5.814;2024-02-15T14:08:11;13.45;;;0.90;;
60243;SDS011;46106;51.468;5.814;2024-02-15T14:10:36;3.45;;;1.00;;
60243;SDS011;46106;51.468;5.814;2024-02-15T14:13:02;3.28;;;0.90;;
60243;SDS011;46106;51.468;5.814;2024-02-15T14:15:28;2.63;;;1.00;;
60243;SDS011;46106;51.468;5.814;2024-02-15T14:17:53;4.68;;;0.90;;
60243;SDS011;46106;51.468;5.814;2024-02-15T14:20:19;7.13;;;0.88;;
60243;SDS011;46106;51.468;5.814;2024-02-15T14:22:46;4.10;;;0.98;;
60243;SDS011;46106;51.468;5.814;2024-02-15T14:25:18;6.10;;;0.82;;
60243;SDS011;46106;51.468;5.814;2024-02-15T14:27:44;4.57;;;0.90;;
60243;SDS011;46106;51.468;5.814;2024-02-15T14:30:10;2.38;;;0.70;;
60243;SDS011;46106;51.468;5.814;2024-02-15T14:32:54;2.42;;;0.80;;
60243;SDS011;46106;51.468;5.814;2024-02-15T14:35:32;5.32;;;1.02;;
60243;SDS011;46106;51.468;5.814;2024-02-15T14:38:01;3.42;;;1.00;;
60243;SDS011;46106;51.468;5.814;2024-02-15T14:40:27;5.40;;;1.13;;
60243;SDS011;46106;51.468;5.814;2024-02-15T14:42:53;6.60;;;1.10;;
60243;SDS011;46106;51.468;5.814;2024-02-15T14:45:19;4.38;;;0.75;;
60243;SDS011;46106;51.468;5.814;2024-02-15T14:47:45;3.88;;;1.05;;
60243;SDS011;46106;51.468;5.814;2024-02-15T14:50:12;5.28;;;0.95;;
60243;SDS011;46106;51.468;5.814;2024-02-15T14:52:38;8.98;;;1.08;;
60243;SDS011;46106;51.468;5.814;2024-02-15T14:55:04;3.20;;;0.93;;
60243;SDS011;46106;51.468;5.814;2024-02-15T14:57:31;6.05;;;1.20;;
60243;SDS011;46106;51.468;5.814;2024-02-15T14:59:57;5.07;;;1.00;;